Terminal Aerodrome Forecast
Issued by NWS

Home | Current Version | Previous Version | Text Only | Print | Product List | Glossary On
Versions: 1 2 3 4 5 6 7 8 9 10 11 12 13 14 15 16 17 18 19 20 21
000
FTUS42 KFFC 282324
TAFPDK
TAF
KPDK 282324Z 2900/2924 32010KT P6SM FEW150
     FM290300 35003KT P6SM SKC
     FM291200 08004KT P6SM SKC
     FM291500 12006KT P6SM FEW250
     FM292000 16007KT P6SM SCT050=

USA.gov is the U.S. government's official web portal to all federal, state and local government web resources and services.